Time;durP1;ratioP1;P1;durP2;ratioP2;P2;SDS_P1;SDS_P2;PMS_P1;PMS_P2;Temp;Humidity;BMP_temperature;BMP_pressure;BME280_temperature;BME280_humidity;BME280_pressure;Samples;Min_cycle;Max_cycle;Signal;HPM_P1;HPM_P2
2023/03/24 00:01:03;;;;;;;1999.90;999.90;;;11.50;99.90;;;;;;5052183;28;20403;-71
2023/03/24 00:03:29;;;;;;;1999.90;999.90;;;11.50;99.90;;;;;;5067521;28;20056;-71
2023/03/24 00:06:03;;;;;;;1999.90;999.90;;;11.50;99.90;;;;;;5049750;28;20400;-71
2023/03/24 00:08:33;;;;;;;1999.90;999.90;;;11.40;99.90;;;;;;5052372;28;20044;-71
2023/03/24 00:11:06;;;;;;;1999.90;999.90;;;11.40;99.90;;;;;;5064938;28;20163;-71
2023/03/24 00:13:37;;;;;;;1999.90;999.90;;;11.40;99.90;;;;;;5084511;28;20042;-71
2023/03/24 00:16:13;;;;;;;1999.90;999.90;;;11.40;99.90;;;;;;5066844;28;20070;-71
2023/03/24 00:18:39;;;;;;;1999.90;999.90;;;11.40;99.90;;;;;;5066710;28;20515;-72
2023/03/24 00:21:07;;;;;;;1999.90;999.90;;;11.40;99.90;;;;;;5049892;28;20424;-72
2023/03/24 00:23:33;;;;;;;1999.90;999.90;;;11.40;99.90;;;;;;5065224;28;20040;-72
2023/03/24 00:26:01;;;;;;;1999.90;999.90;;;11.40;99.90;;;;;;5066488;28;20128;-72
2023/03/24 00:28:30;;;;;;;1999.90;999.90;;;11.40;99.90;;;;;;5066656;28;20067;-72
2023/03/24 00:30:56;;;;;;;1999.90;999.90;;;11.40;99.90;;;;;;5051545;28;20451;-72
2023/03/24 00:33:23;;;;;;;1999.90;999.90;;;11.40;99.90;;;;;;5067029;28;20060;-72
2023/03/24 00:35:48;;;;;;;1999.90;999.90;;;11.40;99.90;;;;;;5065848;28;20052;-71
2023/03/24 00:38:14;;;;;;;1999.90;999.90;;;11.40;99.90;;;;;;5051180;28;20052;-71
2023/03/24 00:40:47;;;;;;;1999.90;999.90;;;11.40;99.90;;;;;;5051592;28;20080;-72
2023/03/24 00:43:13;;;;;;;1999.90;999.90;;;11.40;99.90;;;;;;5067288;28;20557;-72
2023/03/24 00:45:45;;;;;;;1999.90;999.90;;;11.40;99.90;;;;;;5068025;28;20131;-72
2023/03/24 00:48:16;;;;;;;1999.90;999.90;;;11.40;99.90;;;;;;5046448;28;20102;-72
2023/03/24 00:50:49;;;;;;;1999.90;999.90;;;11.40;99.90;;;;;;5067295;28;20044;-71
2023/03/24 00:53:16;;;;;;;1999.90;999.90;;;11.40;99.90;;;;;;5064634;28;20032;-72
2023/03/24 00:55:48;;;;;;;1999.90;999.90;;;11.40;99.90;;;;;;5064314;28;20044;-72
2023/03/24 00:58:17;;;;;;;1999.90;999.90;;;11.40;99.90;;;;;;5067255;28;20071;-71
2023/03/24 01:00:47;;;;;;;1999.90;999.90;;;11.40;99.90;;;;;;5066677;28;20145;-72
2023/03/24 01:03:14;;;;;;;1999.90;999.90;;;11.40;99.90;;;;;;5066000;28;20090;-72
2023/03/24 01:05:40;;;;;;;1999.90;999.90;;;11.40;99.90;;;;;;5066800;28;20093;-72
2023/03/24 01:08:07;;;;;;;1999.90;999.90;;;11.40;99.90;;;;;;5066408;28;20036;-72
2023/03/24 01:10:49;;;;;;;1999.90;999.90;;;11.40;99.90;;;;;;5067772;28;20048;-72
2023/03/24 01:13:16;;;;;;;1999.90;999.90;;;11.40;99.90;;;;;;5048891;28;20037;-72
2023/03/24 01:15:43;;;;;;;1999.90;999.90;;;11.40;99.90;;;;;;5065005;28;20036;-72
2023/03/24 01:18:11;;;;;;;1999.90;999.90;;;11.40;99.90;;;;;;5066926;28;20645;-72
2023/03/24 01:20:39;;;;;;;1999.90;999.90;;;11.40;99.90;;;;;;5049749;28;20056;-72
2023/03/24 01:23:06;;;;;;;1999.90;999.90;;;11.40;99.90;;;;;;5065174;28;20419;-72
2023/03/24 01:25:36;;;;;;;1999.90;999.90;;;11.40;99.90;;;;;;5067057;28;20167;-72
2023/03/24 01:28:02;;;;;;;1999.90;999.90;;;11.40;99.90;;;;;;5048904;28;20040;-72
2023/03/24 01:30:28;;;;;;;1999.90;999.90;;;11.40;99.90;;;;;;5065407;28;20457;-72
2023/03/24 01:32:55;;;;;;;1999.90;999.90;;;11.40;99.90;;;;;;5049877;28;20041;-72
2023/03/24 01:35:22;;;;;;;1999.90;999.90;;;11.40;99.90;;;;;;5066946;28;20039;-72
2023/03/24 01:37:48;;;;;;;1999.90;999.90;;;11.40;99.90;;;;;;5049803;28;20040;-72
2023/03/24 01:40:27;;;;;;;1999.90;999.90;;;11.40;99.90;;;;;;5065873;28;20040;-72
2023/03/24 01:42:52;;;;;;;1999.90;999.90;;;11.40;99.90;;;;;;5060894;28;20056;-72
2023/03/24 01:45:37;;;;;;;1999.90;999.90;;;11.40;99.90;;;;;;5063823;28;20036;-72
2023/03/24 01:48:04;;;;;;;;;;;11.40;99.90;;;;;;5064663;28;20044;-72
2023/03/24 01:50:31;;;;;;;1999.90;999.90;;;11.40;99.90;;;;;;5049493;28;19967;-72
2023/03/24 01:52:57;;;;;;;1999.90;999.90;;;11.40;99.90;;;;;;5062903;28;20117;-73
2023/03/24 01:55:23;;;;;;;1999.90;999.90;;;11.40;99.90;;;;;;5062219;28;20094;-72
2023/03/24 01:57:53;;;;;;;1999.90;999.90;;;11.40;99.90;;;;;;5047714;28;20041;-72
2023/03/24 02:00:20;;;;;;;1999.90;999.90;;;11.40;99.90;;;;;;5048245;28;20044;-73
2023/03/24 02:03:00;;;;;;;1999.90;999.90;;;11.40;99.90;;;;;;5061392;28;20543;-72
2023/03/24 02:05:30;;;;;;;1999.90;999.90;;;11.50;99.90;;;;;;5065487;28;20412;-72
2023/03/24 02:08:31;;;;;;;1999.90;999.90;;;11.40;99.90;;;;;;5062248;28;20036;-72
2023/03/24 02:10:58;;;;;;;1999.90;999.90;;;11.50;99.90;;;;;;5060147;28;20036;-72
2023/03/24 02:13:24;;;;;;;1999.90;999.90;;;11.50;99.90;;;;;;5061763;28;20397;-72
2023/03/24 02:15:59;;;;;;;1999.90;999.90;;;11.50;99.90;;;;;;5064839;28;20033;-72
2023/03/24 02:19:02;;;;;;;1999.90;999.90;;;11.50;99.90;;;;;;5064068;28;20037;-72
2023/03/24 02:21:31;;;;;;;1999.90;999.90;;;11.50;99.90;;;;;;5047773;28;20052;-71
2023/03/24 02:24:08;;;;;;;1999.90;999.90;;;11.50;99.90;;;;;;5064912;28;20040;-71
2023/03/24 02:26:47;;;;;;;1999.90;999.90;;;11.50;99.90;;;;;;5064996;28;20045;-71
2023/03/24 02:29:39;;;;;;;1999.90;999.90;;;11.50;99.90;;;;;;5065332;28;20690;-71
2023/03/24 02:32:33;;;;;;;1999.90;999.90;;;11.50;99.90;;;;;;5047299;28;20131;-71
2023/03/24 02:35:31;;;;;;;1999.90;999.90;;;11.50;99.90;;;;;;5047893;28;20040;-71
2023/03/24 02:38:13;;;;;;;1999.90;999.90;;;11.50;99.90;;;;;;5066043;28;20047;-71
2023/03/24 02:40:44;;;;;;;1999.90;999.90;;;11.50;99.90;;;;;;5063572;28;20424;-71
2023/03/24 02:43:34;;;;;;;1999.90;999.90;;;11.60;99.90;;;;;;5047244;28;20040;-71
2023/03/24 02:46:26;;;;;;;1999.90;999.90;;;11.60;99.90;;;;;;5064287;28;20048;-71
2023/03/24 02:49:10;;;;;;;1999.90;999.90;;;11.60;99.90;;;;;;5063000;28;20036;-71
2023/03/24 02:52:03;;;;;;;1999.90;999.90;;;11.60;99.90;;;;;;5065906;28;20067;-71
2023/03/24 02:54:56;;;;;;;1999.90;999.90;;;11.60;99.90;;;;;;5047270;28;20124;-71
2023/03/24 02:57:35;;;;;;;1999.90;999.90;;;11.60;99.90;;;;;;5062459;28;20044;-71
2023/03/24 03:00:09;;;;;;;1999.90;999.90;;;11.70;99.90;;;;;;5046499;28;20040;-71
2023/03/24 03:02:44;;;;;;;1999.90;999.90;;;11.70;99.90;;;;;;5045735;28;20044;-71
2023/03/24 03:05:20;;;;;;;1999.90;999.90;;;11.70;99.90;;;;;;5060178;28;20048;-71
2023/03/24 03:07:49;;;;;;;1999.90;999.90;;;11.70;99.90;;;;;;5048483;28;20412;-71
2023/03/24 03:10:20;;;;;;;1999.90;999.90;;;11.70;99.90;;;;;;5064448;28;20041;-71
2023/03/24 03:12:50;;;;;;;1999.90;999.90;;;11.70;99.90;;;;;;5062759;28;20043;-71
2023/03/24 03:15:21;;;;;;;1999.90;999.90;;;11.70;99.90;;;;;;5063237;28;20040;-71
2023/03/24 03:17:52;;;;;;;1999.90;999.90;;;11.80;99.90;;;;;;5048082;28;20040;-71
2023/03/24 03:20:23;;;;;;;1999.90;999.90;;;11.80;99.90;;;;;;5047094;28;20052;-71
2023/03/24 03:23:02;;;;;;;1999.90;999.90;;;11.80;99.90;;;;;;5063954;28;20451;-72
2023/03/24 03:25:33;;;;;;;1999.90;999.90;;;11.90;99.90;;;;;;5045496;28;20045;-72
2023/03/24 03:28:02;;;;;;;1999.90;999.90;;;11.90;99.90;;;;;;5045291;28;20393;-72
2023/03/24 03:30:37;;;;;;;1999.90;999.90;;;11.90;99.90;;;;;;5048669;28;20044;-72
2023/03/24 03:33:23;;;;;;;1999.90;999.90;;;11.80;99.90;;;;;;5046184;28;20360;-72
2023/03/24 03:36:07;;;;;;;1999.90;999.90;;;11.60;99.90;;;;;;5047730;28;20102;-72
2023/03/24 03:39:00;;;;;;;1999.90;999.90;;;11.60;99.90;;;;;;5047189;28;20083;-72
2023/03/24 03:41:26;;;;;;;1999.90;999.90;;;11.60;99.90;;;;;;5047616;28;20464;-72
2023/03/24 03:43:52;;;;;;;1999.90;999.90;;;11.40;99.90;;;;;;5062642;28;20119;-72
2023/03/24 03:46:18;;;;;;;1999.90;999.90;;;11.40;99.90;;;;;;5065053;28;20036;-72
2023/03/24 03:48:44;;;;;;;1999.90;999.90;;;11.30;99.90;;;;;;5062229;28;20039;-72
2023/03/24 03:51:11;;;;;;;1999.90;999.90;;;11.20;99.90;;;;;;5062182;28;20050;-72
2023/03/24 03:54:02;;;;;;;1999.90;999.90;;;11.20;99.90;;;;;;5064348;28;20044;-72
2023/03/24 03:56:30;;;;;;;1999.90;999.90;;;11.10;99.90;;;;;;5059833;28;20205;-72
2023/03/24 03:58:57;;;;;;;1999.90;999.90;;;11.10;99.90;;;;;;5043725;28;20116;-71
2023/03/24 04:01:26;;;;;;;1999.90;999.90;;;11.10;99.90;;;;;;5064407;28;20116;-72
2023/03/24 04:04:10;;;;;;;1999.90;999.90;;;11.10;99.90;;;;;;5046139;28;20068;-72
2023/03/24 04:07:14;;;;;;;1999.90;999.90;;;11.00;99.90;;;;;;5064148;28;20062;-71
2023/03/24 04:09:59;;;;;;;1999.90;999.90;;;11.00;99.90;;;;;;5046877;28;20099;-71
2023/03/24 04:12:46;;;;;;;1999.90;999.90;;;10.90;99.90;;;;;;5064015;28;20032;-72
2023/03/24 04:15:26;;;;;;;1999.90;999.90;;;10.90;99.90;;;;;;5044296;28;20041;-71
2023/03/24 04:17:55;;;;;;;1999.90;999.90;;;10.80;99.90;;;;;;5064643;28;20045;-72
2023/03/24 04:20:37;;;;;;;1999.90;999.90;;;10.70;99.90;;;;;;5047674;28;20450;-71
2023/03/24 04:23:13;;;;;;;1999.90;999.90;;;10.60;99.90;;;;;;5058054;28;20074;-71
2023/03/24 04:25:39;;;;;;;1999.90;999.90;;;10.50;99.90;;;;;;5064825;28;20431;-72
2023/03/24 04:28:27;;;;;;;1999.90;999.90;;;10.50;99.90;;;;;;5047346;28;20037;-71
2023/03/24 04:31:13;;;;;;;1999.90;999.90;;;10.50;99.90;;;;;;5064510;28;20053;-72
2023/03/24 04:33:49;;;;;;;1999.90;999.90;;;10.40;99.90;;;;;;5063920;28;20055;-71
2023/03/24 04:36:41;;;;;;;1999.90;999.90;;;10.40;99.90;;;;;;5048793;28;20044;-71
2023/03/24 04:39:11;;;;;;;1999.90;999.90;;;10.30;99.90;;;;;;5068323;28;20044;-71
2023/03/24 04:41:38;;;;;;;1999.90;999.90;;;10.30;99.90;;;;;;5068080;28;20047;-71
2023/03/24 04:44:04;;;;;;;1999.90;999.90;;;10.20;99.90;;;;;;5065696;28;20059;-71
2023/03/24 04:46:31;;;;;;;1999.90;999.90;;;10.20;99.90;;;;;;5069009;28;20508;-72
2023/03/24 04:48:57;;;;;;;1999.90;999.90;;;10.10;99.90;;;;;;5067738;28;20032;-72
2023/03/24 04:51:24;;;;;;;1999.90;999.90;;;10.00;99.90;;;;;;5067479;28;20044;-71
2023/03/24 04:53:49;;;;;;;1999.90;999.90;;;10.00;99.90;;;;;;5049100;28;20040;-72
2023/03/24 04:56:27;;;;;;;1999.90;999.90;;;9.90;99.90;;;;;;5065506;28;20041;-71
2023/03/24 04:58:53;;;;;;;1999.90;999.90;;;9.80;99.90;;;;;;5065399;28;20063;-71
2023/03/24 05:01:21;;;;;;;1999.90;999.90;;;9.80;99.90;;;;;;5067698;28;20040;-71
2023/03/24 05:03:48;;;;;;;1999.90;999.90;;;9.80;99.90;;;;;;5048671;28;20037;-72
2023/03/24 05:06:15;;;;;;;1999.90;999.90;;;9.80;99.90;;;;;;5065399;28;20036;-72
2023/03/24 05:08:41;;;;;;;1999.90;999.90;;;9.80;99.90;;;;;;5048233;28;20045;-71
2023/03/24 05:11:07;;;;;;;1999.90;999.90;;;9.80;99.90;;;;;;5051214;28;20388;-71
2023/03/24 05:13:32;;;;;;;1999.90;999.90;;;9.80;99.90;;;;;;5049536;28;20044;-71
2023/03/24 05:15:58;;;;;;;1999.90;999.90;;;9.80;99.90;;;;;;5048097;28;20044;-71
2023/03/24 05:18:24;;;;;;;1999.90;999.90;;;9.80;99.90;;;;;;5064427;28;20451;-72
2023/03/24 05:20:50;;;;;;;1999.90;999.90;;;9.80;99.90;;;;;;5050267;28;20057;-74
2023/03/24 05:23:16;;;;;;;1999.90;999.90;;;9.90;99.90;;;;;;5067167;28;20041;-74
2023/03/24 05:25:42;;;;;;;1999.90;999.90;;;9.80;99.90;;;;;;5065122;28;20052;-72
2023/03/24 05:28:07;;;;;;;1999.90;999.90;;;9.80;99.90;;;;;;5064396;28;20041;-71
2023/03/24 05:30:33;;;;;;;1999.90;999.90;;;9.70;99.90;;;;;;5049990;28;20044;-71
2023/03/24 05:32:58;;;;;;;1999.90;999.90;;;9.80;99.90;;;;;;5047738;28;20163;-71
2023/03/24 05:35:25;;;;;;;1999.90;999.90;;;9.80;99.90;;;;;;5049257;28;20055;-72
2023/03/24 05:37:50;;;;;;;1999.90;999.90;;;9.80;99.90;;;;;;5065334;28;20037;-71
2023/03/24 05:40:16;;;;;;;1999.90;999.90;;;9.80;99.90;;;;;;5048559;28;20364;-71
2023/03/24 05:42:42;;;;;;;1999.90;999.90;;;9.80;99.90;;;;;;5064304;28;20496;-71
2023/03/24 05:45:09;;;;;;;1999.90;999.90;;;9.90;99.90;;;;;;5065511;28;20452;-72
2023/03/24 05:47:36;;;;;;;1999.90;999.90;;;9.90;99.90;;;;;;5049206;28;20480;-71
2023/03/24 05:50:02;;;;;;;1999.90;999.90;;;9.90;99.90;;;;;;5065643;28;20412;-71
2023/03/24 05:52:28;;;;;;;1999.90;999.90;;;9.80;99.90;;;;;;5049143;28;20489;-71
2023/03/24 05:54:54;;;;;;;1999.90;999.90;;;9.70;99.90;;;;;;5065975;28;20140;-71
2023/03/24 05:57:20;;;;;;;1999.90;999.90;;;9.70;99.90;;;;;;5066606;28;20563;-71
2023/03/24 05:59:45;;;;;;;1999.90;999.90;;;9.70;99.90;;;;;;5047367;28;20135;-71
2023/03/24 06:02:11;;;;;;;1999.90;999.90;;;9.70;99.90;;;;;;5064216;28;20048;-71
2023/03/24 06:04:37;;;;;;;1999.90;999.90;;;9.70;99.90;;;;;;5047662;28;20127;-71
2023/03/24 06:07:03;;;;;;;1999.90;999.90;;;9.70;99.90;;;;;;5049974;28;20408;-71
2023/03/24 06:09:34;;;;;;;1999.90;999.90;;;9.70;99.90;;;;;;5048728;28;20048;-71
2023/03/24 06:12:04;;;;;;;1999.90;999.90;;;9.70;99.90;;;;;;5063112;28;20488;-71
2023/03/24 06:14:30;;;;;;;1999.90;999.90;;;9.70;99.90;;;;;;5065349;28;20040;-72
2023/03/24 06:16:58;;;;;;;1999.90;999.90;;;9.70;99.90;;;;;;5046163;28;20036;-71
2023/03/24 06:19:24;;;;;;;1999.90;999.90;;;9.70;99.90;;;;;;5063431;28;20143;-71
2023/03/24 06:21:50;;;;;;;1999.90;999.90;;;9.70;99.90;;;;;;5059587;28;20080;-71
2023/03/24 06:24:16;;;;;;;1999.90;999.90;;;9.70;99.90;;;;;;5061805;28;20036;-71
2023/03/24 06:26:43;;;;;;;1999.90;999.90;;;9.70;99.90;;;;;;5047799;28;20043;-72
2023/03/24 06:29:11;;;;;;;1999.90;999.90;;;9.70;99.90;;;;;;5064627;28;20048;-71
2023/03/24 06:31:37;;;;;;;1999.90;999.90;;;9.80;99.90;;;;;;5065533;28;20028;-72
2023/03/24 06:34:03;;;;;;;1999.90;999.90;;;9.80;99.90;;;;;;5063776;28;20032;-71
2023/03/24 06:36:29;;;;;;;1999.90;999.90;;;9.70;99.90;;;;;;5079267;28;20431;-71
2023/03/24 06:38:55;;;;;;;1999.90;999.90;;;9.70;99.90;;;;;;5049696;28;20123;-73
2023/03/24 06:41:21;;;;;;;1999.90;999.90;;;9.80;99.90;;;;;;5064210;28;20493;-74
2023/03/24 06:43:47;;;;;;;1999.90;999.90;;;9.80;99.90;;;;;;5065162;28;20127;-74
2023/03/24 06:46:13;;;;;;;1999.90;999.90;;;9.80;99.90;;;;;;5046796;28;20468;-71
2023/03/24 06:48:38;;;;;;;1999.90;999.90;;;9.90;99.90;;;;;;5064638;28;20552;-71
2023/03/24 06:51:05;;;;;;;1999.90;999.90;;;9.90;99.90;;;;;;5065397;28;20038;-71
2023/03/24 06:53:30;;;;;;;1999.90;999.90;;;9.90;99.90;;;;;;5064086;28;20048;-71
2023/03/24 06:55:56;;;;;;;1999.90;999.90;;;10.00;99.90;;;;;;5048438;28;20040;-71
2023/03/24 06:58:21;;;;;;;1999.90;999.90;;;10.00;99.90;;;;;;5063116;28;20552;-71
2023/03/24 07:00:47;;;;;;;1999.90;999.90;;;10.00;99.90;;;;;;5064342;28;20058;-71
2023/03/24 07:03:15;;;;;;;1999.90;999.90;;;10.00;99.90;;;;;;5063707;28;20446;-71
2023/03/24 07:05:43;;;;;;;1999.90;999.90;;;10.10;99.90;;;;;;5047700;28;20044;-71
2023/03/24 07:08:10;;;;;;;1999.90;999.90;;;10.10;99.90;;;;;;5036051;28;21729;-74
2023/03/24 07:10:41;;;;;;;1999.90;999.90;;;10.10;99.90;;;;;;5059162;28;20115;-72
2023/03/24 07:13:07;;;;;;;1999.90;999.90;;;10.20;99.90;;;;;;5063359;28;20082;-71
2023/03/24 07:15:32;;;;;;;1999.90;999.90;;;10.20;99.90;;;;;;5043380;28;20048;-74
2023/03/24 07:17:58;;;;;;;1999.90;999.90;;;10.20;99.90;;;;;;5060901;28;20051;-71
2023/03/24 07:20:24;;;;;;;1999.90;999.90;;;10.20;99.90;;;;;;5063334;28;20083;-71
2023/03/24 07:22:50;;;;;;;1999.90;999.90;;;10.30;99.90;;;;;;5059220;28;20536;-71
2023/03/24 07:25:18;;;;;;;1999.90;999.90;;;10.30;99.90;;;;;;5041792;28;20044;-72
2023/03/24 07:27:45;;;;;;;1999.90;999.90;;;10.30;99.90;;;;;;5056740;28;20124;-71
2023/03/24 07:30:11;;;;;;;1999.90;999.90;;;10.30;99.90;;;;;;5058383;28;20044;-71
2023/03/24 07:32:38;;;;;;;1999.90;999.90;;;10.40;99.90;;;;;;5041931;28;20040;-71
2023/03/24 07:35:06;;;;;;;1999.90;999.90;;;10.40;99.90;;;;;;5062891;28;20025;-72
2023/03/24 07:37:32;;;;;;;1999.90;999.90;;;10.40;99.90;;;;;;5058919;28;20131;-72
2023/03/24 07:39:57;;;;;;;1999.90;999.90;;;10.40;99.90;;;;;;5058931;28;20147;-72
2023/03/24 07:42:24;;;;;;;1999.90;999.90;;;10.50;99.90;;;;;;5058867;28;20531;-72
2023/03/24 07:44:50;;;;;;;1999.90;999.90;;;10.50;99.90;;;;;;5041409;28;20045;-72
2023/03/24 07:47:16;;;;;;;1999.90;999.90;;;10.40;99.90;;;;;;5044287;28;20400;-71
2023/03/24 07:49:42;;;;;;;1999.90;999.90;;;10.50;99.90;;;;;;5062617;28;20457;-72
2023/03/24 07:52:07;;;;;;;1999.90;999.90;;;10.50;99.90;;;;;;5065061;28;20143;-71
2023/03/24 07:54:33;;;;;;;1999.90;999.90;;;10.50;99.90;;;;;;5062209;28;20040;-72
2023/03/24 07:57:00;;;;;;;1999.90;999.90;;;10.50;99.90;;;;;;5064475;28;20397;-72
2023/03/24 07:59:26;;;;;;;1999.90;999.90;;;10.50;99.90;;;;;;5064359;28;20105;-72
2023/03/24 08:01:52;;;;;;;1999.90;999.90;;;10.50;99.90;;;;;;5063746;28;20044;-72
2023/03/24 08:04:18;;;;;;;1999.90;999.90;;;10.50;99.90;;;;;;5040333;28;20393;-72
2023/03/24 08:06:44;;;;;;;1999.90;999.90;;;10.50;99.90;;;;;;5063937;28;20040;-71
2023/03/24 08:09:10;;;;;;;1999.90;999.90;;;10.50;99.90;;;;;;5045674;28;20032;-71
2023/03/24 08:11:36;;;;;;;1999.90;999.90;;;10.50;99.90;;;;;;5066327;28;20125;-71
2023/03/24 08:14:02;;;;;;;1999.90;999.90;;;10.50;99.90;;;;;;5040311;28;20063;-71
2023/03/24 08:16:28;;;;;;;1999.90;999.90;;;10.60;99.90;;;;;;5063453;28;20041;-71
2023/03/24 08:18:57;;;;;;;1999.90;999.90;;;10.60;99.90;;;;;;5063789;28;20048;-71
2023/03/24 08:21:25;;;;;;;1999.90;999.90;;;10.70;99.90;;;;;;5066402;28;20077;-72
2023/03/24 08:23:51;;;;;;;1999.90;999.90;;;10.80;99.90;;;;;;5062121;28;20037;-74
2023/03/24 08:26:17;;;;;;;1999.90;999.90;;;10.80;99.90;;;;;;5065492;28;20048;-74
2023/03/24 08:28:43;;;;;;;1999.90;999.90;;;10.80;99.90;;;;;;5048229;28;20036;-71
2023/03/24 08:31:09;;;;;;;1999.90;999.90;;;10.80;99.90;;;;;;5063292;28;20493;-72
2023/03/24 08:33:36;;;;;;;1999.90;999.90;;;10.90;99.90;;;;;;5048594;28;20430;-72
2023/03/24 08:36:02;;;;;;;1999.90;999.90;;;10.90;99.90;;;;;;5048779;28;20526;-72
2023/03/24 08:38:31;;;;;;;1999.90;999.90;;;11.00;99.90;;;;;;5048926;28;20040;-71
2023/03/24 08:41:00;;;;;;;1999.90;999.90;;;11.10;99.90;;;;;;5066408;28;20052;-71
2023/03/24 08:43:28;;;;;;;1999.90;999.90;;;11.10;99.90;;;;;;5046598;28;20060;-72
2023/03/24 08:45:55;;;;;;;1999.90;999.90;;;11.20;99.90;;;;;;5062421;28;20036;-71
2023/03/24 08:48:22;;;;;;;1999.90;999.90;;;11.30;99.90;;;;;;5057731;28;20052;-71
2023/03/24 08:50:48;;;;;;;1999.90;999.90;;;11.20;99.90;;;;;;5066314;28;20040;-71
2023/03/24 08:53:13;;;;;;;1999.90;999.90;;;11.20;99.90;;;;;;5065480;28;20033;-72
2023/03/24 08:55:42;;;;;;;1999.90;999.90;;;11.20;99.90;;;;;;5067109;28;20123;-71
2023/03/24 08:58:13;;;;;;;1999.90;999.90;;;11.20;99.90;;;;;;5060958;28;20049;-71
2023/03/24 09:00:39;;;;;;;1999.90;999.90;;;11.30;99.90;;;;;;5061789;28;20045;-71
2023/03/24 09:03:05;;;;;;;1999.90;999.90;;;11.30;99.90;;;;;;5064494;28;20041;-71
2023/03/24 09:05:31;;;;;;;1999.90;999.90;;;11.30;99.90;;;;;;5062703;28;20114;-72
2023/03/24 09:07:59;;;;;;;1999.90;999.90;;;11.30;99.90;;;;;;5056902;28;20076;-74
2023/03/24 09:10:25;;;;;;;1999.90;999.90;;;11.20;99.90;;;;;;5049153;28;20055;-73
2023/03/24 09:12:51;;;;;;;1999.90;999.90;;;11.20;99.90;;;;;;5065817;28;20131;-73
2023/03/24 09:15:17;;;;;;;1999.90;999.90;;;11.10;99.90;;;;;;5066945;28;20552;-74
2023/03/24 09:17:43;;;;;;;1999.90;999.90;;;11.00;99.90;;;;;;5062583;28;20511;-72
2023/03/24 09:20:11;;;;;;;1999.90;999.90;;;11.00;99.90;;;;;;5049458;28;20061;-71
2023/03/24 09:22:38;;;;;;;1999.90;999.90;;;11.10;99.90;;;;;;5046899;28;20070;-72
2023/03/24 09:25:05;;;;;;;1999.90;999.90;;;11.70;99.90;;;;;;5039688;28;20040;-72
2023/03/24 09:27:31;;;;;;;1999.90;999.90;;;12.40;99.90;;;;;;5065556;28;20058;-71
2023/03/24 09:29:56;;;;;;;1999.90;999.90;;;12.80;99.90;;;;;;5065753;28;20048;-71
2023/03/24 09:32:22;;;;;;;1999.90;999.90;;;13.00;99.90;;;;;;5081224;28;20029;-71
2023/03/24 09:34:47;;;;;;;1999.90;999.90;;;13.30;99.90;;;;;;5048979;28;20037;-71
2023/03/24 09:37:13;;;;;;;1999.90;999.90;;;13.40;99.90;;;;;;5065166;28;20060;-71
2023/03/24 09:39:39;;;;;;;1999.90;999.90;;;13.30;99.90;;;;;;5066082;28;20036;-71
2023/03/24 09:42:07;;;;;;;1999.90;999.90;;;13.20;99.90;;;;;;5059197;28;20032;-71
2023/03/24 09:44:39;;;;;;;1999.90;999.90;;;13.10;99.90;;;;;;5047587;28;20443;-71
2023/03/24 09:47:15;;;;;;;1999.90;999.90;;;13.10;99.90;;;;;;5064753;28;20040;-71
2023/03/24 09:49:41;;;;;;;1999.90;999.90;;;13.10;99.90;;;;;;5065193;28;20036;-71
2023/03/24 09:52:11;;;;;;;1999.90;999.90;;;13.20;99.90;;;;;;5049559;28;20094;-71
2023/03/24 09:54:52;;;;;;;1999.90;999.90;;;13.10;99.90;;;;;;5045757;28;20036;-71
2023/03/24 09:57:48;;;;;;;1999.90;999.90;;;12.90;99.90;;;;;;5072840;28;20051;-71
2023/03/24 10:00:25;;;;;;;1999.90;999.90;;;12.80;99.90;;;;;;5064609;28;20055;-71
2023/03/24 10:02:51;;;;;;;1999.90;999.90;;;12.70;99.90;;;;;;5044162;28;20070;-71
2023/03/24 10:05:23;;;;;;;1999.90;999.90;;;12.70;99.90;;;;;;5061810;28;20040;-71
2023/03/24 10:08:02;;;;;;;1999.90;999.90;;;12.70;99.90;;;;;;5063949;28;20097;-71
2023/03/24 10:11:06;;;;;;;1999.90;999.90;;;12.90;99.90;;;;;;5062896;28;20052;-71
2023/03/24 10:13:51;;;;;;;1999.90;999.90;;;13.20;99.90;;;;;;4968572;28;20046;-71
2023/03/24 10:16:40;;;;;;;1999.90;999.90;;;13.30;99.90;;;;;;5054673;28;20059;-71
2023/03/24 10:19:27;;;;;;;1999.90;999.90;;;13.40;99.90;;;;;;5060194;28;20403;-71
2023/03/24 10:22:05;;;;;;;1999.90;999.90;;;13.30;99.90;;;;;;5060709;28;20053;-71
2023/03/24 10:24:41;;;;;;;1999.90;999.90;;;13.10;99.90;;;;;;5076665;28;20135;-71
2023/03/24 10:27:19;;;;;;;1999.90;999.90;;;12.90;99.90;;;;;;5046776;28;20523;-71
2023/03/24 10:29:47;;;;;;;1999.90;999.90;;;12.80;99.90;;;;;;5048891;28;20070;-71
2023/03/24 10:32:20;;;;;;;1999.90;999.90;;;12.70;99.90;;;;;;5060769;28;20122;-71
2023/03/24 10:34:52;;;;;;;1999.90;999.90;;;12.60;99.90;;;;;;5064104;28;20123;-71
2023/03/24 10:37:18;;;;;;;1999.90;999.90;;;12.40;99.90;;;;;;5064056;28;20102;-70
2023/03/24 10:39:44;;;;;;;1999.90;999.90;;;12.30;99.90;;;;;;5044732;28;20558;-70
2023/03/24 10:42:17;;;;;;;1999.90;999.90;;;12.20;99.90;;;;;;5059841;28;20048;-71
2023/03/24 10:44:44;;;;;;;1999.90;999.90;;;12.10;99.90;;;;;;5045423;28;20044;-71
2023/03/24 10:47:12;;;;;;;1999.90;999.90;;;12.10;99.90;;;;;;5062918;28;20039;-71
2023/03/24 10:49:52;;;;;;;1999.90;999.90;;;12.20;99.90;;;;;;5058985;28;20048;-71
2023/03/24 10:52:17;;;;;;;1999.90;999.90;;;12.40;99.90;;;;;;5046097;28;20502;-71
2023/03/24 10:54:57;;;;;;;1999.90;999.90;;;12.80;99.90;;;;;;5061420;28;20119;-70
2023/03/24 10:57:24;;;;;;;1999.90;999.90;;;13.10;99.90;;;;;;5061170;28;20033;-70
2023/03/24 10:59:55;;;;;;;1999.90;999.90;;;13.40;99.90;;;;;;5044394;28;20085;-70
2023/03/24 11:02:24;;;;;;;1999.90;999.90;;;13.60;99.90;;;;;;5045498;28;20037;-71
2023/03/24 11:04:57;;;;;;;1999.90;999.90;;;13.80;99.90;;;;;;5061414;28;20865;-70
2023/03/24 11:07:34;;;;;;;1999.90;999.90;;;13.90;99.90;;;;;;5042509;28;20509;-70
2023/03/24 11:10:06;;;;;;;1999.90;999.90;;;14.00;99.90;;;;;;5060834;28;20079;-71
2023/03/24 11:12:35;;;;;;;1999.90;999.90;;;14.10;99.90;;;;;;5056803;28;20040;-70
2023/03/24 11:15:27;;;;;;;1999.90;999.90;;;14.00;99.90;;;;;;5063397;28;20043;-70
2023/03/24 11:18:06;;;;;;;1999.90;999.90;;;13.80;99.90;;;;;;5062472;28;20488;-70
2023/03/24 11:20:34;;;;;;;1999.90;999.90;;;13.70;99.90;;;;;;5054545;28;20060;-70
2023/03/24 11:23:09;;;;;;;1999.90;999.90;;;13.60;99.90;;;;;;5059423;28;20224;-70
2023/03/24 11:25:38;;;;;;;1999.90;999.90;;;13.80;99.90;;;;;;5056781;28;20044;-70
2023/03/24 11:28:14;;;;;;;1999.90;999.90;;;14.10;99.90;;;;;;5044287;28;20041;-71
2023/03/24 11:30:45;;;;;;;1999.90;999.90;;;14.20;99.90;;;;;;5037385;28;20045;-70
2023/03/24 11:33:22;;;;;;;1999.90;999.90;;;14.20;99.90;;;;;;5060038;28;20563;-70
2023/03/24 11:35:48;;;;;;;1999.90;999.90;;;14.00;99.90;;;;;;5041606;28;20249;-70
2023/03/24 11:38:28;;;;;;;1999.90;999.90;;;13.80;99.90;;;;;;5060704;28;20060;-71
2023/03/24 11:41:01;;;;;;;1999.90;999.90;;;13.50;99.90;;;;;;5059663;28;20037;-70
2023/03/24 11:43:27;;;;;;;1999.90;999.90;;;13.10;99.90;;;;;;5059530;28;20449;-70
2023/03/24 11:46:06;;;;;;;1999.90;999.90;;;12.90;99.90;;;;;;5042543;28;20056;-70
2023/03/24 11:48:39;;;;;;;1999.90;999.90;;;12.80;99.90;;;;;;5059654;28;20086;-70
2023/03/24 11:51:08;;;;;;;1999.90;999.90;;;12.80;99.90;;;;;;5064948;28;20993;-70
2023/03/24 11:53:45;;;;;;;1999.90;999.90;;;13.10;99.90;;;;;;5047985;28;20460;-70
2023/03/24 11:56:25;;;;;;;1999.90;999.90;;;13.50;99.90;;;;;;5050617;28;20461;-70
2023/03/24 11:59:36;;;;;;;1999.90;999.90;;;13.90;99.90;;;;;;5062694;28;20076;-70
2023/03/24 12:02:09;;;;;;;1999.90;999.90;;;14.20;99.90;;;;;;5046748;28;20058;-70
2023/03/24 12:04:54;;;;;;;1999.90;999.90;;;14.40;99.90;;;;;;5064712;28;20623;-70
2023/03/24 12:07:44;;;;;;;1999.90;999.90;;;14.30;99.90;;;;;;5062578;28;20488;-70
2023/03/24 12:10:22;;;;;;;1999.90;999.90;;;14.40;99.90;;;;;;5049032;28;20537;-70
2023/03/24 12:13:08;;;;;;;1999.90;999.90;;;14.70;99.90;;;;;;5065357;28;20051;-70
2023/03/24 12:15:56;;;;;;;1999.90;999.90;;;14.60;99.90;;;;;;5065163;28;20398;-70
2023/03/24 12:19:05;;;;;;;1999.90;999.90;;;14.90;99.90;;;;;;5065297;28;20054;-70
2023/03/24 12:21:52;;;;;;;1999.90;999.90;;;15.10;99.90;;;;;;5063719;28;20056;-70